Atlanta, Nebraska
Current Conditions -  °F | °C
As of 4:35 AM on Monday 22 Dec 2014 (Local Time) from KHDE Reporting Station
Clear Clear  
Wind Chill: -2°   Ceiling: Unl
Heat Index:   Visibility: 10mi
Dew Point:   Wind: 6mph
Humidity: 95%   Direction: 310°NW
Pressure: 29.51"   Gusts: NA
Location:  40.37°N, 99.47°W
Report Text: KHDE 221035Z AUTO 31005KT 10SM CLR 01/01 A2951 RMK AO2 T00130006
Loading
Personal Weather Stations






























Interactive Weather Map New forecast layout! Learn more

10-Day Weather Forecast

Advertisements
Track Severe Weather on mobile